Airport View

Enter AWOS ICAO identifier for current METAR.

ex. KFNL

KMHV 251400Z AUTO 36006KT 6SM HZ CLR 17/03 A2998 RMK A01

25 Sep 2020 14:22

Frequency: 132.225

Phone: 661-824-5218

Other Area AWOS: KEDW - KTSP - K9L2 - KWJF

TAF KEDW 251245Z 2513/2619 VRB06KT 9999 SCT000 QNH2989INS FU SCT000 BECMG 2519/2520 24012KT 9999 SCT000 QNH2991INS FU SCT000 BECMG 2521/2522 25012G18KT 9999 SCT000 510009 QNH2987INS FU SCT000 BECMG 2600/2601 25015G25KT 9999 SCT000 510009 QNH2984INS FU SCT000 BECMG 2602/2603 26012KT 9999 SCT000 510009 QNH2984INS FU SCT000 BECMG 2605/2606 VRB06KT 9999 SCT000 QNH2984INS FU SCT000 TX34/2523Z TN14/2513Z